Terminal Aerodrome Forecast
Issued by NWS

Home | Current Version | Previous Version | Text Only | Print | Product List | Glossary On
Versions: 1 2 3 4 5 6 7 8 9 10 11 12 13 14 15 16 17 18 19 20 21 22 23 24 25 26 27
125
FTUS42 KTAE 231125
TAFECP
TAF
KECP 231125Z 2312/2412 35005KT 6SM BR FEW010
      TEMPO 2312/2315 BKN010
     FM231500 05008KT P6SM SCT030
     FM231800 05009KT P6SM SCT100
     FM240600 VRB03KT 5SM BR SCT005=

USA.gov is the U.S. government's official web portal to all federal, state and local government web resources and services.